Current | Forecast
Updated: 3:55 AM CEST on October 18, 2017
Observed at Florennes, Belgium
Temperature 55°F
Humidity 77%
Dew Point 48°F
Wind ESE at 4 mph
Pressure 29.95 in (Falling)
Conditions Clear
Visibility 6.2 miles
UV N/A
Clouds
Yesterday's Maximum 66°F
Yesterday's Minimum 52°F approx.
Yesterday's Heating Degree Days 6 approx.
Sunrise8:04 AM CEST
Sunset6:41 PM CEST
Moon Rise6:13 AM CEST
Moon Set6:34 PM CEST
Moon PhaseMoon Phase
Waning Crescent
Raw METARMETAR EBFS 180155Z AUTO 12003KT 9999 NCD 13/09 Q1014 BLU


Monday
. High: 60° F.
Tuesday
. High: 64° F.
Wednesday
. High: 64° F.
Thursday
. High: 55° F.
Friday
. High: 59° F.
Saturday
. High: 64° F.
Sunday
. High: 64° F.
Monday
. High: 66° F.

Units: English | Metric

Find the Weather for any City, State or Zipcode, or Country:

U.S. State List | Severe Weather | Tropical Storms | Ski Conditions
United States | Canada | Central America | South America | Asia | Europe | Australia | Africa | Islands

Weather Underground

© Copyright 2017
The Weather Company, LLC